Time;durP1;ratioP1;P1;durP2;ratioP2;P2;SDS_P1;SDS_P2;PMS_P1;PMS_P2;Temp;Humidity;BMP_temperature;BMP_pressure;BME280_temperature;BME280_humidity;BME280_pressure;Samples;Min_cycle;Max_cycle;Signal;HPM_P1;HPM_P2
2022/06/12 00:00:42;;;;;;;7.95;1.75;;;;;;;;;;4994674;28;20215;-63
2022/06/12 00:03:08;;;;;;;6.78;1.88;;;;;;;;;;5002211;28;20879;-63
2022/06/12 00:05:34;;;;;;;6.38;1.60;;;;;;;;;;4994932;28;20566;-63
2022/06/12 00:07:59;;;;;;;6.40;1.63;;;;;;;;;;5004825;28;20275;-63
2022/06/12 00:10:25;;;;;;;6.25;1.45;;;;;;;;;;5012984;28;20580;-63
2022/06/12 00:12:50;;;;;;;6.07;1.77;;;;;;;;;;5001723;28;20244;-63
2022/06/12 00:15:17;;;;;;;7.05;1.65;;;;;;;;;;5003904;28;20224;-63
2022/06/12 00:17:43;;;;;;;5.90;1.60;;;;;;;;;;5005870;28;20304;-63
2022/06/12 00:20:09;;;;;;;5.72;1.42;;;;;;;;;;5013826;28;20267;-63
2022/06/12 00:22:35;;;;;;;6.38;1.30;;;;;;;;;;5013434;28;20205;-63
2022/06/12 00:25:00;;;;;;;7.57;1.50;;;;;;;;;;5000939;28;20224;-63
2022/06/12 00:27:25;;;;;;;9.60;1.73;;;;;;;;;;5006742;28;20231;-63
2022/06/12 00:29:51;;;;;;;7.57;1.48;;;;;;;;;;4993354;28;20323;-63
2022/06/12 00:32:17;;;;;;;5.88;1.50;;;;;;;;;;5008197;28;20609;-63
2022/06/12 00:34:44;;;;;;;6.63;1.52;;;;;;;;;;5003817;28;20221;-63
2022/06/12 00:37:11;;;;;;;7.65;1.48;;;;;;;;;;4995253;28;20209;-63
2022/06/12 00:39:36;;;;;;;7.75;1.75;;;;;;;;;;5013654;28;20228;-63
2022/06/12 00:42:02;;;;;;;4.22;1.50;;;;;;;;;;5005119;28;20218;-63
2022/06/12 00:44:29;;;;;;;6.50;1.33;;;;;;;;;;5004622;28;20213;-63
2022/06/12 00:46:57;;;;;;;5.15;1.52;;;;;;;;;;5005018;28;20327;-63
2022/06/12 00:49:33;;;;;;;6.85;1.85;;;;;;;;;;5005559;28;20308;-63
2022/06/12 00:52:01;;;;;;;5.72;1.48;;;;;;;;;;4993461;28;20260;-63
2022/06/12 00:54:27;;;;;;;5.13;1.50;;;;;;;;;;4993830;28;20675;-63
2022/06/12 00:56:53;;;;;;;3.55;1.30;;;;;;;;;;5011662;28;20232;-63
2022/06/12 00:59:27;;;;;;;5.07;1.48;;;;;;;;;;5011868;28;20589;-63
2022/06/12 01:01:53;;;;;;;5.93;1.30;;;;;;;;;;5024764;28;20248;-63
2022/06/12 01:07:05;;;;;;;5.90;1.50;;;;;;;;;;5013418;28;20224;-63
2022/06/12 01:09:32;;;;;;;4.20;1.35;;;;;;;;;;5012534;28;20254;-63
2022/06/12 01:11:58;;;;;;;5.55;1.50;;;;;;;;;;5007759;28;20225;-63
2022/06/12 01:14:24;;;;;;;6.93;1.15;;;;;;;;;;5022587;28;20224;-63
2022/06/12 01:16:50;;;;;;;5.20;1.35;;;;;;;;;;5022260;28;20695;-63
2022/06/12 01:19:34;;;;;;;6.50;1.85;;;;;;;;;;5002838;28;20212;-63
2022/06/12 01:22:07;;;;;;;3.88;1.20;;;;;;;;;;5027872;28;20644;-63
2022/06/12 01:24:37;;;;;;;4.40;1.20;;;;;;;;;;5012400;28;20312;-63
2022/06/12 01:27:11;;;;;;;6.85;1.50;;;;;;;;;;5010195;28;20576;-63
2022/06/12 01:29:39;;;;;;;4.70;1.25;;;;;;;;;;5013038;28;20227;-63
2022/06/12 01:32:08;;;;;;;6.05;1.77;;;;;;;;;;5020585;28;20677;-63
2022/06/12 01:34:34;;;;;;;5.93;1.55;;;;;;;;;;5002062;28;20212;-63
2022/06/12 01:37:03;;;;;;;6.30;1.50;;;;;;;;;;4996878;28;20213;-63
2022/06/12 01:39:37;;;;;;;5.20;1.40;;;;;;;;;;5020028;28;20581;-63
2022/06/12 01:42:02;;;;;;;7.43;1.30;;;;;;;;;;4991543;28;20224;-63
2022/06/12 01:44:29;;;;;;;5.57;1.70;;;;;;;;;;4996993;28;20209;-63
2022/06/12 01:46:56;;;;;;;5.00;1.45;;;;;;;;;;4995685;28;20216;-63
2022/06/12 01:49:25;;;;;;;7.43;1.63;;;;;;;;;;5000234;28;20291;-63
2022/06/12 01:52:04;;;;;;;7.00;1.42;;;;;;;;;;4992740;28;20312;-63
2022/06/12 01:54:30;;;;;;;7.07;1.40;;;;;;;;;;5007497;28;20275;-63
2022/06/12 01:57:04;;;;;;;4.35;1.20;;;;;;;;;;5008205;28;20264;-63
2022/06/12 01:59:38;;;;;;;8.75;1.70;;;;;;;;;;5027096;28;20755;-63
2022/06/12 02:02:08;;;;;;;5.95;1.52;;;;;;;;;;5005727;28;20221;-63
2022/06/12 02:04:38;;;;;;;6.75;1.60;;;;;;;;;;5008368;28;20680;-63
2022/06/12 02:07:22;;;;;;;6.78;1.67;;;;;;;;;;5010445;28;20220;-63
2022/06/12 02:09:49;;;;;;;6.82;1.60;;;;;;;;;;4991698;28;20328;-63
2022/06/12 02:15:09;;;;;;;6.63;1.40;;;;;;;;;;5008046;28;20666;-63
2022/06/12 02:17:39;;;;;;;8.65;1.50;;;;;;;;;;4994552;28;20626;-63
2022/06/12 02:20:05;;;;;;;7.85;1.50;;;;;;;;;;4991979;28;20288;-63
2022/06/12 02:22:30;;;;;;;7.60;1.48;;;;;;;;;;5006288;28;20212;-63
2022/06/12 02:24:58;;;;;;;4.18;1.50;;;;;;;;;;5007753;28;20221;-63
2022/06/12 02:27:27;;;;;;;8.68;1.52;;;;;;;;;;4994456;28;20248;-62
2022/06/12 02:29:55;;;;;;;8.00;1.60;;;;;;;;;;5026292;28;20204;-63
2022/06/12 02:32:23;;;;;;;8.68;1.52;;;;;;;;;;5022049;28;20222;-63
2022/06/12 02:34:57;;;;;;;7.18;1.60;;;;;;;;;;5001483;28;20228;-62
2022/06/12 02:37:23;;;;;;;7.45;1.65;;;;;;;;;;5013823;28;20208;-63
2022/06/12 02:39:50;;;;;;;7.95;1.48;;;;;;;;;;5023311;28;20566;-63
2022/06/12 02:42:18;;;;;;;7.65;1.52;;;;;;;;;;5008890;28;20314;-63
2022/06/12 02:44:52;;;;;;;5.55;1.67;;;;;;;;;;5019995;28;20299;-63
2022/06/12 02:47:18;;;;;;;9.15;1.92;;;;;;;;;;4999771;28;20303;-63
2022/06/12 02:49:44;;;;;;;5.45;1.73;;;;;;;;;;4991708;28;20205;-63
2022/06/12 02:52:11;;;;;;;8.48;1.80;;;;;;;;;;5011291;28;20622;-64
2022/06/12 02:54:37;;;;;;;9.65;1.70;;;;;;;;;;5003252;28;20227;-62
2022/06/12 02:57:05;;;;;;;7.22;1.75;;;;;;;;;;4995403;28;20568;-63
2022/06/12 02:59:36;;;;;;;7.25;1.88;;;;;;;;;;4992747;28;20307;-63
2022/06/12 03:02:06;;;;;;;6.50;1.90;;;;;;;;;;5006549;28;20215;-64
2022/06/12 03:04:36;;;;;;;7.47;2.33;;;;;;;;;;5017222;28;20244;-63
2022/06/12 03:07:02;;;;;;;8.63;1.90;;;;;;;;;;4995631;28;20236;-63
2022/06/12 03:09:29;;;;;;;8.38;1.73;;;;;;;;;;5026573;28;20208;-63
2022/06/12 03:11:55;;;;;;;11.35;2.45;;;;;;;;;;4993247;28;20232;-63
2022/06/12 03:14:21;;;;;;;9.40;1.75;;;;;;;;;;4985726;28;20224;-63
2022/06/12 03:16:46;;;;;;;9.00;1.98;;;;;;;;;;4982952;28;20557;-63
2022/06/12 03:19:13;;;;;;;7.03;2.10;;;;;;;;;;4979755;28;20217;-63
2022/06/12 03:21:42;;;;;;;10.32;1.90;;;;;;;;;;4978898;28;20442;-63
2022/06/12 03:24:12;;;;;;;9.05;2.20;;;;;;;;;;4990482;28;20216;-63
2022/06/12 03:26:39;;;;;;;11.80;2.38;;;;;;;;;;4993230;28;20974;-63
2022/06/12 03:29:13;;;;;;;6.53;1.85;;;;;;;;;;4993696;28;20232;-63
2022/06/12 03:31:46;;;;;;;9.48;1.98;;;;;;;;;;5007412;28;20267;-64
2022/06/12 03:34:16;;;;;;;11.55;2.47;;;;;;;;;;5015096;28;20236;-64
2022/06/12 03:36:43;;;;;;;16.33;2.20;;;;;;;;;;5001262;28;20227;-64
2022/06/12 03:39:11;;;;;;;10.82;2.13;;;;;;;;;;4989322;28;20222;-64
2022/06/12 03:41:42;;;;;;;10.73;2.30;;;;;;;;;;5016458;28;20243;-64
2022/06/12 03:44:14;;;;;;;15.82;2.50;;;;;;;;;;4989138;28;20675;-64
2022/06/12 03:46:47;;;;;;;12.40;2.47;;;;;;;;;;5001730;28;20268;-64
2022/06/12 03:49:15;;;;;;;6.85;1.88;;;;;;;;;;5008487;28;20219;-64
2022/06/12 03:51:41;;;;;;;10.32;2.30;;;;;;;;;;5016230;28;20224;-63
2022/06/12 03:54:12;;;;;;;11.02;2.17;;;;;;;;;;5000031;28;20220;-63
2022/06/12 03:59:30;;;;;;;9.00;2.05;;;;;;;;;;5001052;28;20263;-62
2022/06/12 04:01:55;;;;;;;9.43;2.28;;;;;;;;;;5019609;28;20245;-62
2022/06/12 04:04:21;;;;;;;8.70;1.80;;;;;;;;;;5004279;28;20224;-63
2022/06/12 04:06:46;;;;;;;7.45;1.90;;;;;;;;;;5012370;28;20209;-62
2022/06/12 04:09:14;;;;;;;9.57;2.22;;;;;;;;;;5010609;28;20279;-64
2022/06/12 04:11:39;;;;;;;294.67;19.30;;;;;;;;;;4997010;28;20246;-63
2022/06/12 04:14:06;;;;;;;13.32;2.60;;;;;;;;;;5018623;28;20304;-63
2022/06/12 04:16:38;;;;;;;9.52;2.70;;;;;;;;;;4994031;28;20256;-62
2022/06/12 04:19:05;;;;;;;10.55;2.58;;;;;;;;;;4985144;28;20209;-62
2022/06/12 04:21:33;;;;;;;11.07;2.78;;;;;;;;;;4995730;28;20571;-61
2022/06/12 04:24:09;;;;;;;10.07;2.65;;;;;;;;;;5018874;28;20236;-63
2022/06/12 04:26:40;;;;;;;45.23;4.80;;;;;;;;;;5018589;28;20411;-61
2022/06/12 04:29:05;;;;;;;12.27;2.70;;;;;;;;;;4997017;28;20227;-62
2022/06/12 04:31:30;;;;;;;11.55;2.53;;;;;;;;;;4988855;28;20221;-64
2022/06/12 04:34:11;;;;;;;11.52;3.10;;;;;;;;;;4976306;28;20471;-60
2022/06/12 04:36:37;;;;;;;10.75;2.97;;;;;;;;;;4983750;28;20244;-60
2022/06/12 04:39:02;;;;;;;10.27;2.40;;;;;;;;;;4984801;28;20300;-61
2022/06/12 04:41:28;;;;;;;14.52;2.90;;;;;;;;;;4984917;28;20217;-61
2022/06/12 04:43:53;;;;;;;20.90;3.53;;;;;;;;;;4984303;28;20216;-60
2022/06/12 04:46:20;;;;;;;20.95;3.20;;;;;;;;;;4984647;28;20209;-61
2022/06/12 04:48:45;;;;;;;15.40;2.88;;;;;;;;;;4999865;28;20275;-63
2022/06/12 04:51:11;;;;;;;23.83;4.30;;;;;;;;;;4978216;28;20229;-62
2022/06/12 04:53:36;;;;;;;54.92;5.95;;;;;;;;;;4976992;28;20295;-62
2022/06/12 04:56:02;;;;;;;15.48;3.22;;;;;;;;;;4977671;28;20469;-62
2022/06/12 04:58:28;;;;;;;209.30;20.10;;;;;;;;;;4984324;28;20259;-63
2022/06/12 05:00:53;;;;;;;13.93;3.22;;;;;;;;;;4992644;28;20718;-62
2022/06/12 05:03:18;;;;;;;23.75;3.90;;;;;;;;;;4983893;28;20256;-62
2022/06/12 05:05:44;;;;;;;16.35;3.20;;;;;;;;;;4983521;28;20221;-61
2022/06/12 05:08:09;;;;;;;22.92;3.72;;;;;;;;;;4986795;28;20209;-67
2022/06/12 05:10:35;;;;;;;12.27;2.72;;;;;;;;;;4984383;28;20769;-61
2022/06/12 05:13:00;;;;;;;15.05;3.53;;;;;;;;;;4981367;28;20221;-61
2022/06/12 05:15:26;;;;;;;17.85;3.65;;;;;;;;;;4993417;28;20233;-61
2022/06/12 05:17:52;;;;;;;22.77;3.90;;;;;;;;;;4975923;28;20990;-61
2022/06/12 05:20:19;;;;;;;32.53;4.20;;;;;;;;;;4978990;28;20692;-61
2022/06/12 05:22:44;;;;;;;22.92;3.75;;;;;;;;;;4995344;28;20221;-61
2022/06/12 05:25:10;;;;;;;20.45;3.35;;;;;;;;;;4983030;28;20580;-62
2022/06/12 05:27:35;;;;;;;22.02;3.50;;;;;;;;;;4999230;28;20997;-61
2022/06/12 05:30:01;;;;;;;16.05;3.03;;;;;;;;;;4983743;28;20221;-62
2022/06/12 05:32:26;;;;;;;13.43;2.83;;;;;;;;;;5002221;28;20282;-62
2022/06/12 05:34:52;;;;;;;13.95;3.28;;;;;;;;;;4984015;28;20216;-61
2022/06/12 05:37:17;;;;;;;17.50;3.35;;;;;;;;;;4972162;28;20227;-61
2022/06/12 05:39:42;;;;;;;21.42;3.50;;;;;;;;;;4970427;28;20795;-61
2022/06/12 05:42:08;;;;;;;25.60;3.90;;;;;;;;;;4975843;28;20469;-61
2022/06/12 05:44:33;;;;;;;23.00;4.53;;;;;;;;;;4983281;28;20213;-61
2022/06/12 05:46:58;;;;;;;27.45;3.92;;;;;;;;;;4982902;28;20217;-60
2022/06/12 05:49:25;;;;;;;19.90;3.80;;;;;;;;;;4983208;28;20631;-60
2022/06/12 05:51:50;;;;;;;15.73;3.20;;;;;;;;;;4983135;28;20221;-60
2022/06/12 05:54:16;;;;;;;23.02;4.07;;;;;;;;;;4982401;28;20275;-61
2022/06/12 05:56:42;;;;;;;173.55;11.95;;;;;;;;;;4991090;28;20339;-61
2022/06/12 05:59:07;;;;;;;31.50;4.07;;;;;;;;;;4978648;28;20336;-61
2022/06/12 06:01:33;;;;;;;14.38;3.30;;;;;;;;;;4975301;28;20209;-61
2022/06/12 06:03:58;;;;;;;15.93;3.47;;;;;;;;;;4975018;28;20224;-61
2022/06/12 06:06:26;;;;;;;18.90;3.28;;;;;;;;;;4980027;28;20213;-61
2022/06/12 06:08:51;;;;;;;41.17;5.90;;;;;;;;;;4982161;28;20648;-61
2022/06/12 06:11:16;;;;;;;16.52;3.75;;;;;;;;;;4998042;28;20779;-61
2022/06/12 06:13:42;;;;;;;18.10;3.40;;;;;;;;;;4983827;28;20760;-61
2022/06/12 06:16:07;;;;;;;15.45;3.40;;;;;;;;;;4981841;28;20216;-62
2022/06/12 06:18:33;;;;;;;15.00;3.72;;;;;;;;;;4983450;28;20217;-61
2022/06/12 06:20:58;;;;;;;22.77;4.97;;;;;;;;;;5003820;28;20235;-61
2022/06/12 06:23:23;;;;;;;23.45;3.75;;;;;;;;;;4983957;28;20308;-61
2022/06/12 06:25:49;;;;;;;20.95;4.40;;;;;;;;;;4974995;28;20472;-61
2022/06/12 06:28:14;;;;;;;46.05;4.85;;;;;;;;;;4977133;28;20216;-61
2022/06/12 06:30:40;;;;;;;24.73;4.40;;;;;;;;;;4982869;28;20243;-61
2022/06/12 06:33:05;;;;;;;20.73;3.75;;;;;;;;;;4982740;28;20240;-61
2022/06/12 06:35:30;;;;;;;35.05;4.82;;;;;;;;;;4981536;28;20213;-61
2022/06/12 06:37:56;;;;;;;31.33;4.50;;;;;;;;;;4982883;28;20213;-61
2022/06/12 06:40:22;;;;;;;33.20;5.15;;;;;;;;;;4982514;28;21090;-61
2022/06/12 06:42:47;;;;;;;291.63;22.10;;;;;;;;;;5000389;28;20667;-61
2022/06/12 06:47:57;;;;;;;17.13;4.45;;;;;;;;;;4988562;28;20211;-61
2022/06/12 06:50:22;;;;;;;21.83;4.15;;;;;;;;;;4975187;28;20220;-61
2022/06/12 06:52:48;;;;;;;34.28;4.78;;;;;;;;;;4982497;28;20676;-62
2022/06/12 06:55:13;;;;;;;35.20;5.07;;;;;;;;;;4982772;28;20230;-61
2022/06/12 06:57:39;;;;;;;39.78;5.28;;;;;;;;;;4998253;28;21008;-61
2022/06/12 07:00:05;;;;;;;20.27;4.20;;;;;;;;;;4982251;28;20228;-61
2022/06/12 07:02:30;;;;;;;18.55;3.80;;;;;;;;;;5002232;28;20217;-61
2022/06/12 07:04:55;;;;;;;23.35;4.28;;;;;;;;;;5010510;28;20294;-61
2022/06/12 07:07:21;;;;;;;41.53;5.10;;;;;;;;;;5010839;28;20239;-60
2022/06/12 07:09:46;;;;;;;25.85;4.95;;;;;;;;;;4998264;28;20722;-61
2022/06/12 07:12:11;;;;;;;28.10;4.80;;;;;;;;;;5009034;28;20303;-61
2022/06/12 07:14:37;;;;;;;18.42;4.03;;;;;;;;;;5011566;28;20629;-61
2022/06/12 07:17:03;;;;;;;20.58;4.13;;;;;;;;;;5010941;28;20216;-61
2022/06/12 07:19:28;;;;;;;21.55;4.68;;;;;;;;;;5001720;28;20299;-61
2022/06/12 07:21:53;;;;;;;31.27;4.40;;;;;;;;;;4996278;28;20209;-61
2022/06/12 07:24:19;;;;;;;15.05;3.60;;;;;;;;;;4990725;28;20248;-61
2022/06/12 07:26:45;;;;;;;18.38;3.83;;;;;;;;;;4995520;28;20221;-61
2022/06/12 07:29:11;;;;;;;18.70;4.20;;;;;;;;;;4986945;28;20209;-60
2022/06/12 07:31:37;;;;;;;20.15;4.18;;;;;;;;;;4999455;28;20286;-61
2022/06/12 07:34:02;;;;;;;17.45;4.53;;;;;;;;;;4998148;28;20751;-61
2022/06/12 07:36:28;;;;;;;34.25;5.18;;;;;;;;;;4994598;28;20684;-61
2022/06/12 07:38:53;;;;;;;16.23;3.35;;;;;;;;;;5005305;28;20209;-61
2022/06/12 07:41:19;;;;;;;22.02;3.78;;;;;;;;;;5014516;28;20295;-62
2022/06/12 07:43:45;;;;;;;47.53;6.10;;;;;;;;;;5014859;28;20205;-62
2022/06/12 07:46:11;;;;;;;50.67;7.05;;;;;;;;;;5013354;28;20228;-61
2022/06/12 07:48:37;;;;;;;16.92;3.78;;;;;;;;;;5006531;28;20235;-61
2022/06/12 07:51:03;;;;;;;27.23;4.75;;;;;;;;;;5014268;28;20303;-62
2022/06/12 07:53:30;;;;;;;22.92;5.85;;;;;;;;;;5014160;28;20698;-61
2022/06/12 07:55:55;;;;;;;19.92;3.97;;;;;;;;;;5011545;28;20213;-61
2022/06/12 07:58:23;;;;;;;18.45;3.53;;;;;;;;;;4994396;28;20228;-61
2022/06/12 08:00:48;;;;;;;16.08;3.97;;;;;;;;;;5004135;28;20560;-62
2022/06/12 08:03:13;;;;;;;14.90;3.55;;;;;;;;;;4997471;28;20311;-62
2022/06/12 08:05:40;;;;;;;20.35;4.43;;;;;;;;;;5015260;28;20314;-61
2022/06/12 08:08:05;;;;;;;21.17;4.68;;;;;;;;;;5032092;28;20299;-62
2022/06/12 08:10:31;;;;;;;25.35;4.10;;;;;;;;;;5022953;28;20220;-61
2022/06/12 08:12:56;;;;;;;17.60;4.72;;;;;;;;;;5021129;28;20680;-61
2022/06/12 08:15:23;;;;;;;35.63;4.82;;;;;;;;;;5013014;28;20213;-61
2022/06/12 08:17:49;;;;;;;21.92;4.38;;;;;;;;;;5014094;28;20398;-62
2022/06/12 08:20:24;;;;;;;14.02;3.70;;;;;;;;;;5010630;28;20296;-61
2022/06/12 08:22:57;;;;;;;62.42;6.47;;;;;;;;;;5003773;28;20682;-62
2022/06/12 08:25:22;;;;;;;19.48;3.70;;;;;;;;;;5013690;28;20217;-61
2022/06/12 08:27:48;;;;;;;14.35;3.53;;;;;;;;;;4994906;28;20233;-61
2022/06/12 08:30:13;;;;;;;15.50;3.45;;;;;;;;;;5004069;28;20672;-61
2022/06/12 08:32:39;;;;;;;18.48;3.30;;;;;;;;;;5005192;28;20223;-61
2022/06/12 08:35:05;;;;;;;14.18;3.15;;;;;;;;;;5012927;28;20591;-61
2022/06/12 08:37:32;;;;;;;25.08;4.22;;;;;;;;;;5014065;28;20695;-61
2022/06/12 08:39:57;;;;;;;26.60;5.05;;;;;;;;;;5002537;28;20213;-62
2022/06/12 08:42:25;;;;;;;41.20;4.20;;;;;;;;;;4996876;28;20619;-62
2022/06/12 08:44:54;;;;;;;21.30;3.50;;;;;;;;;;5013320;28;20561;-61
2022/06/12 08:47:28;;;;;;;19.98;3.20;;;;;;;;;;5013037;28;20279;-61
2022/06/12 08:49:56;;;;;;;31.30;3.65;;;;;;;;;;5002084;28;20212;-61
2022/06/12 08:52:24;;;;;;;51.13;4.90;;;;;;;;;;5008843;28;20252;-61
2022/06/12 08:54:50;;;;;;;11.48;2.80;;;;;;;;;;5008972;28;20691;-62
2022/06/12 08:57:19;;;;;;;11.85;2.90;;;;;;;;;;4994120;28;20243;-61
2022/06/12 08:59:49;;;;;;;11.45;2.70;;;;;;;;;;5003297;28;20317;-61
2022/06/12 09:02:16;;;;;;;14.90;3.15;;;;;;;;;;5018659;28;20597;-62
2022/06/12 09:04:42;;;;;;;16.17;2.35;;;;;;;;;;5009738;28;20340;-61
2022/06/12 09:07:16;;;;;;;19.05;2.70;;;;;;;;;;4994746;28;20249;-62
2022/06/12 09:09:45;;;;;;;22.85;2.92;;;;;;;;;;5027676;28;20601;-61
2022/06/12 09:12:23;;;;;;;13.43;2.28;;;;;;;;;;5012514;28;20263;-61
2022/06/12 09:15:01;;;;;;;11.82;2.15;;;;;;;;;;4998304;28;20240;-62
2022/06/12 09:17:36;;;;;;;43.20;4.05;;;;;;;;;;5007621;28;20204;-62
2022/06/12 09:20:11;;;;;;;119.15;8.30;;;;;;;;;;4991786;28;20217;-61
2022/06/12 09:22:44;;;;;;;21.02;3.00;;;;;;;;;;4993472;28;20291;-62
2022/06/12 09:25:13;;;;;;;19.10;2.20;;;;;;;;;;4992284;28;20213;-61
2022/06/12 09:27:42;;;;;;;21.30;3.35;;;;;;;;;;4975843;28;20354;-62
2022/06/12 09:30:09;;;;;;;23.42;2.72;;;;;;;;;;4991511;28;20213;-62
2022/06/12 09:32:39;;;;;;;8.93;2.22;;;;;;;;;;4995656;28;20219;-61
2022/06/12 09:35:04;;;;;;;8.00;1.83;;;;;;;;;;4990742;28;20307;-61
2022/06/12 09:40:25;;;;;;;18.38;2.55;;;;;;;;;;5018711;28;20226;-61
2022/06/12 09:42:57;;;;;;;9.55;2.03;;;;;;;;;;4991881;28;20224;-62
2022/06/12 09:45:25;;;;;;;166.00;11.60;;;;;;;;;;4984548;28;20213;-61
2022/06/12 09:47:54;;;;;;;14.48;1.90;;;;;;;;;;4987304;28;20221;-60
2022/06/12 09:50:26;;;;;;;27.63;2.70;;;;;;;;;;4991536;28;20757;-61
2022/06/12 09:52:53;;;;;;;14.02;2.13;;;;;;;;;;4987182;28;20217;-61
2022/06/12 09:55:23;;;;;;;13.77;2.65;;;;;;;;;;4986616;28;20805;-61
2022/06/12 09:57:51;;;;;;;13.10;2.30;;;;;;;;;;4985387;28;20245;-61
2022/06/12 10:00:21;;;;;;;10.10;1.98;;;;;;;;;;4984062;28;20291;-62
2022/06/12 10:02:50;;;;;;;28.80;3.03;;;;;;;;;;4986075;28;20711;-61
2022/06/12 10:05:18;;;;;;;19.90;2.40;;;;;;;;;;4986952;28;20213;-61
2022/06/12 10:07:46;;;;;;;9.50;2.10;;;;;;;;;;4994145;28;20224;-61
2022/06/12 10:10:22;;;;;;;17.48;2.22;;;;;;;;;;5019967;28;20296;-61
2022/06/12 10:12:47;;;;;;;14.32;2.17;;;;;;;;;;5003073;28;20220;-62
2022/06/12 10:15:19;;;;;;;11.40;2.38;;;;;;;;;;4984668;28;20213;-61
2022/06/12 10:17:46;;;;;;;11.07;2.15;;;;;;;;;;4986646;28;20221;-61
2022/06/12 10:20:14;;;;;;;16.95;2.38;;;;;;;;;;4984582;28;20271;-61
2022/06/12 10:22:42;;;;;;;20.65;2.80;;;;;;;;;;4986263;28;20692;-62
2022/06/12 10:25:08;;;;;;;12.18;2.45;;;;;;;;;;4986206;28;20641;-62
2022/06/12 10:27:41;;;;;;;239.02;15.68;;;;;;;;;;4985626;28;20619;-61
2022/06/12 10:30:06;;;;;;;18.10;2.90;;;;;;;;;;4986591;28;20217;-61
2022/06/12 10:32:50;;;;;;;13.75;2.55;;;;;;;;;;4990738;28;20217;-61
2022/06/12 10:35:16;;;;;;;11.52;2.20;;;;;;;;;;5010309;28;20216;-61
2022/06/12 10:37:41;;;;;;;18.48;3.42;;;;;;;;;;5011627;28;20425;-61
2022/06/12 10:40:27;;;;;;;24.13;3.45;;;;;;;;;;5010945;28;20220;-62
2022/06/12 10:42:55;;;;;;;11.43;2.58;;;;;;;;;;4993953;28;20220;-61
2022/06/12 10:45:23;;;;;;;12.32;3.13;;;;;;;;;;5011508;28;20211;-61
2022/06/12 10:47:49;;;;;;;15.50;2.85;;;;;;;;;;5009998;28;20255;-61
2022/06/12 10:50:16;;;;;;;16.58;2.85;;;;;;;;;;5010332;28;20220;-61
2022/06/12 10:52:57;;;;;;;22.45;2.92;;;;;;;;;;5011577;28;20208;-61
2022/06/12 10:55:38;;;;;;;9.95;2.40;;;;;;;;;;5010468;28;20232;-61
2022/06/12 10:58:09;;;;;;;25.35;3.72;;;;;;;;;;5009742;28;20208;-62
2022/06/12 11:00:36;;;;;;;14.43;2.63;;;;;;;;;;5011517;28;20231;-61
2022/06/12 11:03:07;;;;;;;20.52;2.80;;;;;;;;;;5008914;28;20212;-62
2022/06/12 11:05:40;;;;;;;317.88;24.08;;;;;;;;;;5011593;28;20266;-61
2022/06/12 11:08:21;;;;;;;25.13;3.00;;;;;;;;;;5009960;28;20216;-62
2022/06/12 11:11:05;;;;;;;14.77;2.90;;;;;;;;;;5014737;28;20220;-61
2022/06/12 11:13:37;;;;;;;23.15;3.17;;;;;;;;;;5010688;28;20216;-61
2022/06/12 11:16:06;;;;;;;18.00;2.92;;;;;;;;;;4995453;28;20217;-61
2022/06/12 11:18:46;;;;;;;10.63;2.53;;;;;;;;;;4994024;28;20212;-60
2022/06/12 11:21:19;;;;;;;21.17;2.92;;;;;;;;;;4994377;28;20240;-62
2022/06/12 11:23:45;;;;;;;18.15;2.72;;;;;;;;;;5028904;28;20701;-63
2022/06/12 11:26:21;;;;;;;27.55;3.75;;;;;;;;;;5023146;28;20242;-62
2022/06/12 11:29:06;;;;;;;20.10;3.08;;;;;;;;;;5033709;28;20218;-61
2022/06/12 11:31:37;;;;;;;15.50;3.05;;;;;;;;;;5019499;28;20582;-61
2022/06/12 11:34:09;;;;;;;12.25;2.95;;;;;;;;;;5011484;28;20220;-62
2022/06/12 11:36:36;;;;;;;16.48;2.92;;;;;;;;;;5015575;28;20213;-61
2022/06/12 11:39:07;;;;;;;16.30;2.92;;;;;;;;;;5013731;28;20625;-62
2022/06/12 11:41:40;;;;;;;29.08;3.85;;;;;;;;;;5000896;28;20221;-62
2022/06/12 11:44:08;;;;;;;9.35;2.58;;;;;;;;;;5012851;28;20224;-62
2022/06/12 11:46:41;;;;;;;10.45;2.15;;;;;;;;;;5013270;28;20212;-62
2022/06/12 11:49:20;;;;;;;13.15;2.28;;;;;;;;;;5014020;28;20274;-62
2022/06/12 11:51:51;;;;;;;10.73;2.35;;;;;;;;;;5014130;28;20346;-61
2022/06/12 11:54:25;;;;;;;11.38;2.20;;;;;;;;;;5013279;28;20212;-62
2022/06/12 11:56:56;;;;;;;13.65;2.40;;;;;;;;;;5014192;28;20220;-61
2022/06/12 11:59:25;;;;;;;10.13;2.17;;;;;;;;;;5012813;28;20273;-62
2022/06/12 12:01:51;;;;;;;12.57;2.45;;;;;;;;;;5007469;28;20213;-61
2022/06/12 12:04:35;;;;;;;7.68;1.88;;;;;;;;;;4994517;28;20217;-62
2022/06/12 12:07:06;;;;;;;12.05;2.45;;;;;;;;;;4993812;28;20278;-63
2022/06/12 12:09:37;;;;;;;21.85;2.58;;;;;;;;;;4994612;28;20220;-61
2022/06/12 12:12:04;;;;;;;17.27;2.53;;;;;;;;;;4994031;28;20276;-61
2022/06/12 12:14:31;;;;;;;11.43;2.10;;;;;;;;;;4994094;28;20213;-61
2022/06/12 12:17:00;;;;;;;9.48;1.90;;;;;;;;;;4993181;28;20260;-61
2022/06/12 12:19:27;;;;;;;11.30;1.80;;;;;;;;;;5002298;28;20579;-61
2022/06/12 12:21:53;;;;;;;9.57;2.22;;;;;;;;;;4991987;28;20216;-61
2022/06/12 12:24:21;;;;;;;9.90;2.53;;;;;;;;;;4992805;28;20303;-61
2022/06/12 12:26:46;;;;;;;5.72;1.92;;;;;;;;;;4991835;28;20209;-61
2022/06/12 12:29:15;;;;;;;6.65;1.70;;;;;;;;;;4992843;28;20278;-62
2022/06/12 12:31:40;;;;;;;7.20;1.75;;;;;;;;;;4999620;28;20682;-62
2022/06/12 12:34:06;;;;;;;7.88;1.73;;;;;;;;;;5012941;28;20223;-62
2022/06/12 12:42:18;;;;;;;7.72;1.65;;;;;;;;;;5012801;28;20263;-62
2022/06/12 12:44:45;;;;;;;7.22;1.50;;;;;;;;;;5008009;28;20296;-61
2022/06/12 12:47:16;;;;;;;6.72;1.63;;;;;;;;;;4993525;28;20325;-62
2022/06/12 12:49:42;;;;;;;7.18;1.60;;;;;;;;;;4993051;28;20208;-61
2022/06/12 12:52:10;;;;;;;10.32;1.58;;;;;;;;;;4993722;28;20244;-62
2022/06/12 12:54:51;;;;;;;14.88;2.05;;;;;;;;;;4993920;28;20228;-61
2022/06/12 12:57:18;;;;;;;8.60;1.50;;;;;;;;;;4993415;28;20209;-61
2022/06/12 12:59:44;;;;;;;46.35;3.78;;;;;;;;;;4993516;28;20233;-61
2022/06/12 13:02:18;;;;;;;6.00;1.30;;;;;;;;;;4991030;28;20220;-62
2022/06/12 13:04:43;;;;;;;11.77;1.77;;;;;;;;;;4993877;28;20221;-62
2022/06/12 13:07:11;;;;;;;28.40;3.10;;;;;;;;;;4993294;28;20286;-62
2022/06/12 13:10:02;;;;;;;8.57;1.60;;;;;;;;;;4991354;28;20209;-62
2022/06/12 13:12:41;;;;;;;14.00;1.90;;;;;;;;;;4999749;28;20220;-61
2022/06/12 13:15:19;;;;;;;7.80;1.67;;;;;;;;;;4991872;28;20240;-62
2022/06/12 13:17:50;;;;;;;4.32;1.50;;;;;;;;;;4991415;28;20213;-62
2022/06/12 13:20:20;;;;;;;13.15;1.50;;;;;;;;;;4991599;28;20217;-62
2022/06/12 13:22:48;;;;;;;8.48;1.20;;;;;;;;;;4993282;28;20620;-61
2022/06/12 13:25:16;;;;;;;8.05;1.50;;;;;;;;;;4991763;28;20251;-61
2022/06/12 13:27:50;;;;;;;11.70;1.67;;;;;;;;;;4992149;28;20248;-61
2022/06/12 13:30:17;;;;;;;18.73;3.42;;;;;;;;;;4992264;28;20224;-61
2022/06/12 13:32:43;;;;;;;8.10;1.30;;;;;;;;;;5006196;28;20227;-61
2022/06/12 13:35:17;;;;;;;14.98;1.60;;;;;;;;;;5012301;28;20220;-61
2022/06/12 13:37:43;;;;;;;4.93;1.00;;;;;;;;;;5011752;28;20215;-61
2022/06/12 13:40:27;;;;;;;6.07;1.02;;;;;;;;;;5010973;28;20238;-62
2022/06/12 13:43:02;;;;;;;5.03;0.90;;;;;;;;;;5012387;28;20216;-62
2022/06/12 13:45:27;;;;;;;7.38;1.30;;;;;;;;;;5006987;28;20209;-61
2022/06/12 13:47:53;;;;;;;10.82;1.45;;;;;;;;;;4992741;28;20220;-62
2022/06/12 13:50:21;;;;;;;10.00;1.20;;;;;;;;;;4992227;28;20209;-61
2022/06/12 13:52:58;;;;;;;5.10;1.08;;;;;;;;;;4992606;28;20278;-62
2022/06/12 13:55:33;;;;;;;3.75;0.98;;;;;;;;;;4992627;28;20217;-61
2022/06/12 13:57:59;;;;;;;4.97;1.00;;;;;;;;;;4992530;28;20312;-61
2022/06/12 14:00:29;;;;;;;3.88;0.90;;;;;;;;;;4991543;28;20221;-61
2022/06/12 14:02:55;;;;;;;6.72;1.13;;;;;;;;;;4992490;28;20286;-61
2022/06/12 14:05:24;;;;;;;3.28;0.95;;;;;;;;;;4991652;28;20228;-62
2022/06/12 14:07:50;;;;;;;12.20;1.58;;;;;;;;;;4992639;28;20221;-62
2022/06/12 14:10:17;;;;;;;33.17;3.50;;;;;;;;;;5007157;28;20224;-61
2022/06/12 14:12:43;;;;;;;130.60;9.18;;;;;;;;;;5006767;28;20251;-61
2022/06/12 14:15:26;;;;;;;9.30;1.63;;;;;;;;;;5007123;28;20646;-62
2022/06/12 14:17:53;;;;;;;21.05;2.50;;;;;;;;;;4992383;28;20212;-62
2022/06/12 14:20:22;;;;;;;8.50;1.20;;;;;;;;;;4991393;28;20244;-61
2022/06/12 14:22:48;;;;;;;10.45;1.40;;;;;;;;;;4992387;28;20216;-61
2022/06/12 14:25:20;;;;;;;7.38;1.35;;;;;;;;;;4991704;28;20209;-62
2022/06/12 14:27:53;;;;;;;5.53;1.33;;;;;;;;;;4990706;28;20318;-61
2022/06/12 14:30:31;;;;;;;8.80;1.30;;;;;;;;;;4999461;28;20220;-62
2022/06/12 14:32:57;;;;;;;9.88;1.70;;;;;;;;;;5002786;28;20224;-61
2022/06/12 14:35:22;;;;;;;5.72;1.13;;;;;;;;;;5002262;28;20205;-61
2022/06/12 14:37:48;;;;;;;4.18;1.10;;;;;;;;;;5001842;28;20231;-61
2022/06/12 14:40:20;;;;;;;7.65;1.40;;;;;;;;;;4991107;28;20213;-62
2022/06/12 14:42:45;;;;;;;3.55;1.10;;;;;;;;;;4992477;28;20217;-62
2022/06/12 14:45:12;;;;;;;4.65;1.10;;;;;;;;;;5009328;28;20219;-62
2022/06/12 14:47:38;;;;;;;5.53;1.20;;;;;;;;;;5011217;28;20227;-62
2022/06/12 14:50:05;;;;;;;6.22;1.40;;;;;;;;;;5009850;28;20220;-62
2022/06/12 14:52:30;;;;;;;14.75;1.73;;;;;;;;;;5009993;28;20579;-62
2022/06/12 14:54:56;;;;;;;22.25;1.40;;;;;;;;;;5010923;28;20283;-62
2022/06/12 14:57:23;;;;;;;67.10;4.82;;;;;;;;;;5010928;28;20216;-62
2022/06/12 14:59:48;;;;;;;15.45;1.92;;;;;;;;;;5011411;28;20639;-62